sensor_id;sensor_type;location;lat;lon;timestamp;P1;durP1;ratioP1;P2;durP2;ratioP2
65572;SDS011;52214;50.940;13.996;2022-07-10T00:00:33;5.07;;;2.40;;
65572;SDS011;52214;50.940;13.996;2022-07-10T00:02:59;6.17;;;2.50;;
65572;SDS011;52214;50.940;13.996;2022-07-10T00:05:25;6.20;;;2.55;;
65572;SDS011;52214;50.940;13.996;2022-07-10T00:07:51;6.30;;;2.50;;
65572;SDS011;52214;50.940;13.996;2022-07-10T00:10:18;6.88;;;2.35;;
65572;SDS011;52214;50.940;13.996;2022-07-10T00:12:47;9.43;;;2.30;;
65572;SDS011;52214;50.940;13.996;2022-07-10T00:15:14;8.52;;;2.50;;
65572;SDS011;52214;50.940;13.996;2022-07-10T00:17:41;7.30;;;2.42;;
65572;SDS011;52214;50.940;13.996;2022-07-10T00:20:08;8.47;;;2.40;;
65572;SDS011;52214;50.940;13.996;2022-07-10T00:22:35;7.00;;;2.10;;
65572;SDS011;52214;50.940;13.996;2022-07-10T00:25:02;8.77;;;2.60;;
65572;SDS011;52214;50.940;13.996;2022-07-10T00:27:31;6.85;;;2.33;;
65572;SDS011;52214;50.940;13.996;2022-07-10T00:29:57;11.40;;;2.57;;
65572;SDS011;52214;50.940;13.996;2022-07-10T00:32:23;6.43;;;2.45;;
65572;SDS011;52214;50.940;13.996;2022-07-10T00:34:49;6.13;;;2.20;;
65572;SDS011;52214;50.940;13.996;2022-07-10T00:37:15;5.10;;;2.47;;
65572;SDS011;52214;50.940;13.996;2022-07-10T00:39:41;4.40;;;2.08;;
65572;SDS011;52214;50.940;13.996;2022-07-10T00:42:10;8.17;;;2.30;;
65572;SDS011;52214;50.940;13.996;2022-07-10T00:44:37;7.05;;;2.20;;
65572;SDS011;52214;50.940;13.996;2022-07-10T00:47:06;5.45;;;1.85;;
65572;SDS011;52214;50.940;13.996;2022-07-10T00:49:33;4.53;;;1.63;;
65572;SDS011;52214;50.940;13.996;2022-07-10T00:52:01;6.43;;;1.70;;
65572;SDS011;52214;50.940;13.996;2022-07-10T00:54:29;6.95;;;1.73;;
65572;SDS011;52214;50.940;13.996;2022-07-10T00:56:55;7.70;;;2.00;;
65572;SDS011;52214;50.940;13.996;2022-07-10T00:59:21;6.00;;;1.70;;
65572;SDS011;52214;50.940;13.996;2022-07-10T01:01:48;6.57;;;2.30;;
65572;SDS011;52214;50.940;13.996;2022-07-10T01:04:15;7.60;;;1.90;;
65572;SDS011;52214;50.940;13.996;2022-07-10T01:06:40;8.77;;;2.10;;
65572;SDS011;52214;50.940;13.996;2022-07-10T01:09:06;5.37;;;1.60;;
65572;SDS011;52214;50.940;13.996;2022-07-10T01:11:31;6.23;;;1.90;;
65572;SDS011;52214;50.940;13.996;2022-07-10T01:13:58;5.60;;;1.67;;
65572;SDS011;52214;50.940;13.996;2022-07-10T01:16:25;8.57;;;2.08;;
65572;SDS011;52214;50.940;13.996;2022-07-10T01:18:50;6.10;;;1.70;;
65572;SDS011;52214;50.940;13.996;2022-07-10T01:21:23;9.52;;;2.22;;
65572;SDS011;52214;50.940;13.996;2022-07-10T01:23:53;8.00;;;1.80;;
65572;SDS011;52214;50.940;13.996;2022-07-10T01:26:19;4.23;;;1.50;;
65572;SDS011;52214;50.940;13.996;2022-07-10T01:28:47;9.20;;;1.75;;
65572;SDS011;52214;50.940;13.996;2022-07-10T01:31:14;7.22;;;1.88;;
65572;SDS011;52214;50.940;13.996;2022-07-10T01:33:39;7.57;;;1.80;;
65572;SDS011;52214;50.940;13.996;2022-07-10T01:36:06;7.95;;;2.10;;
65572;SDS011;52214;50.940;13.996;2022-07-10T01:38:32;4.80;;;1.80;;
65572;SDS011;52214;50.940;13.996;2022-07-10T01:40:57;5.63;;;2.17;;
65572;SDS011;52214;50.940;13.996;2022-07-10T01:43:23;8.60;;;2.10;;
65572;SDS011;52214;50.940;13.996;2022-07-10T01:45:49;8.00;;;1.98;;
65572;SDS011;52214;50.940;13.996;2022-07-10T01:48:14;4.57;;;1.60;;
65572;SDS011;52214;50.940;13.996;2022-07-10T01:50:39;7.57;;;2.07;;
65572;SDS011;52214;50.940;13.996;2022-07-10T01:53:05;6.37;;;2.27;;
65572;SDS011;52214;50.940;13.996;2022-07-10T01:55:31;4.75;;;1.50;;
65572;SDS011;52214;50.940;13.996;2022-07-10T01:57:57;6.18;;;1.80;;
65572;SDS011;52214;50.940;13.996;2022-07-10T02:00:22;4.67;;;1.40;;
65572;SDS011;52214;50.940;13.996;2022-07-10T02:02:49;5.68;;;1.88;;
65572;SDS011;52214;50.940;13.996;2022-07-10T02:05:34;5.30;;;1.63;;
65572;SDS011;52214;50.940;13.996;2022-07-10T02:08:00;4.68;;;1.90;;
65572;SDS011;52214;50.940;13.996;2022-07-10T02:10:28;6.20;;;1.80;;
65572;SDS011;52214;50.940;13.996;2022-07-10T02:12:54;7.82;;;1.80;;
65572;SDS011;52214;50.940;13.996;2022-07-10T02:15:21;5.53;;;1.43;;
65572;SDS011;52214;50.940;13.996;2022-07-10T02:17:47;5.25;;;1.80;;
65572;SDS011;52214;50.940;13.996;2022-07-10T02:20:12;4.80;;;1.60;;
65572;SDS011;52214;50.940;13.996;2022-07-10T02:22:38;7.70;;;1.70;;
65572;SDS011;52214;50.940;13.996;2022-07-10T02:25:04;9.60;;;1.73;;
65572;SDS011;52214;50.940;13.996;2022-07-10T02:27:30;5.00;;;1.90;;
65572;SDS011;52214;50.940;13.996;2022-07-10T02:29:55;6.43;;;1.60;;
65572;SDS011;52214;50.940;13.996;2022-07-10T02:32:21;5.80;;;1.60;;
65572;SDS011;52214;50.940;13.996;2022-07-10T02:34:47;4.60;;;1.27;;
65572;SDS011;52214;50.940;13.996;2022-07-10T02:37:12;7.23;;;1.70;;
65572;SDS011;52214;50.940;13.996;2022-07-10T02:39:38;4.97;;;1.43;;
65572;SDS011;52214;50.940;13.996;2022-07-10T02:42:03;5.07;;;1.60;;
65572;SDS011;52214;50.940;13.996;2022-07-10T02:44:29;6.23;;;1.80;;
65572;SDS011;52214;50.940;13.996;2022-07-10T02:46:54;7.17;;;1.70;;
65572;SDS011;52214;50.940;13.996;2022-07-10T02:49:20;5.80;;;1.40;;
65572;SDS011;52214;50.940;13.996;2022-07-10T02:51:45;10.10;;;1.60;;
65572;SDS011;52214;50.940;13.996;2022-07-10T02:54:11;7.90;;;1.53;;
65572;SDS011;52214;50.940;13.996;2022-07-10T02:56:37;4.95;;;1.55;;
65572;SDS011;52214;50.940;13.996;2022-07-10T02:59:02;4.90;;;1.50;;
65572;SDS011;52214;50.940;13.996;2022-07-10T03:01:28;5.87;;;1.30;;
65572;SDS011;52214;50.940;13.996;2022-07-10T03:03:53;6.20;;;1.10;;
65572;SDS011;52214;50.940;13.996;2022-07-10T03:06:19;11.13;;;1.60;;
65572;SDS011;52214;50.940;13.996;2022-07-10T03:08:44;4.67;;;1.20;;
65572;SDS011;52214;50.940;13.996;2022-07-10T03:11:10;6.97;;;1.30;;
65572;SDS011;52214;50.940;13.996;2022-07-10T03:13:35;6.33;;;1.23;;
65572;SDS011;52214;50.940;13.996;2022-07-10T03:16:01;5.87;;;1.10;;
65572;SDS011;52214;50.940;13.996;2022-07-10T03:18:26;4.33;;;1.30;;
65572;SDS011;52214;50.940;13.996;2022-07-10T03:20:52;6.57;;;1.35;;
65572;SDS011;52214;50.940;13.996;2022-07-10T03:23:17;6.10;;;1.33;;
65572;SDS011;52214;50.940;13.996;2022-07-10T03:25:43;6.77;;;1.10;;
65572;SDS011;52214;50.940;13.996;2022-07-10T03:28:08;7.53;;;1.40;;
65572;SDS011;52214;50.940;13.996;2022-07-10T03:30:33;6.47;;;1.27;;
65572;SDS011;52214;50.940;13.996;2022-07-10T03:32:59;7.93;;;1.33;;
65572;SDS011;52214;50.940;13.996;2022-07-10T03:35:26;9.15;;;1.35;;
65572;SDS011;52214;50.940;13.996;2022-07-10T03:37:51;5.07;;;1.20;;
65572;SDS011;52214;50.940;13.996;2022-07-10T03:40:17;4.63;;;1.03;;
65572;SDS011;52214;50.940;13.996;2022-07-10T03:42:42;3.97;;;1.20;;
65572;SDS011;52214;50.940;13.996;2022-07-10T03:45:08;5.63;;;1.30;;
65572;SDS011;52214;50.940;13.996;2022-07-10T03:47:33;5.18;;;1.10;;
65572;SDS011;52214;50.940;13.996;2022-07-10T03:49:59;5.23;;;1.00;;
65572;SDS011;52214;50.940;13.996;2022-07-10T03:52:24;5.27;;;1.20;;
65572;SDS011;52214;50.940;13.996;2022-07-10T03:54:50;3.90;;;1.10;;
65572;SDS011;52214;50.940;13.996;2022-07-10T03:57:19;4.47;;;1.40;;
65572;SDS011;52214;50.940;13.996;2022-07-10T04:00:03;5.97;;;1.50;;
65572;SDS011;52214;50.940;13.996;2022-07-10T04:02:29;4.03;;;1.23;;
65572;SDS011;52214;50.940;13.996;2022-07-10T04:04:54;6.03;;;1.43;;
65572;SDS011;52214;50.940;13.996;2022-07-10T04:07:20;5.43;;;1.20;;
65572;SDS011;52214;50.940;13.996;2022-07-10T04:09:45;4.67;;;1.37;;
65572;SDS011;52214;50.940;13.996;2022-07-10T04:12:11;5.60;;;1.20;;
65572;SDS011;52214;50.940;13.996;2022-07-10T04:14:36;5.72;;;1.50;;
65572;SDS011;52214;50.940;13.996;2022-07-10T04:17:02;3.55;;;0.98;;
65572;SDS011;52214;50.940;13.996;2022-07-10T04:19:27;10.10;;;1.70;;
65572;SDS011;52214;50.940;13.996;2022-07-10T04:21:53;7.47;;;1.20;;
65572;SDS011;52214;50.940;13.996;2022-07-10T04:24:18;6.50;;;1.00;;
65572;SDS011;52214;50.940;13.996;2022-07-10T04:26:44;7.33;;;1.20;;
65572;SDS011;52214;50.940;13.996;2022-07-10T04:29:09;5.77;;;1.47;;
65572;SDS011;52214;50.940;13.996;2022-07-10T04:31:35;5.07;;;1.20;;
65572;SDS011;52214;50.940;13.996;2022-07-10T04:34:00;4.10;;;1.10;;
65572;SDS011;52214;50.940;13.996;2022-07-10T04:36:26;9.47;;;1.40;;
65572;SDS011;52214;50.940;13.996;2022-07-10T04:38:51;4.73;;;1.10;;
65572;SDS011;52214;50.940;13.996;2022-07-10T04:41:17;4.43;;;1.10;;
65572;SDS011;52214;50.940;13.996;2022-07-10T04:43:42;5.60;;;1.10;;
65572;SDS011;52214;50.940;13.996;2022-07-10T04:46:08;7.40;;;1.30;;
65572;SDS011;52214;50.940;13.996;2022-07-10T04:48:33;3.97;;;0.90;;
65572;SDS011;52214;50.940;13.996;2022-07-10T04:50:59;6.40;;;1.40;;
65572;SDS011;52214;50.940;13.996;2022-07-10T04:53:24;3.40;;;1.10;;
65572;SDS011;52214;50.940;13.996;2022-07-10T04:55:50;4.50;;;1.10;;
65572;SDS011;52214;50.940;13.996;2022-07-10T04:58:15;6.33;;;1.23;;
65572;SDS011;52214;50.940;13.996;2022-07-10T05:00:40;4.60;;;1.20;;
65572;SDS011;52214;50.940;13.996;2022-07-10T05:03:06;5.80;;;1.10;;
65572;SDS011;52214;50.940;13.996;2022-07-10T05:05:31;5.32;;;1.10;;
65572;SDS011;52214;50.940;13.996;2022-07-10T05:07:57;3.70;;;1.00;;
65572;SDS011;52214;50.940;13.996;2022-07-10T05:10:24;4.60;;;1.10;;
65572;SDS011;52214;50.940;13.996;2022-07-10T05:12:49;4.73;;;1.00;;
65572;SDS011;52214;50.940;13.996;2022-07-10T05:15:15;6.15;;;1.10;;
65572;SDS011;52214;50.940;13.996;2022-07-10T05:17:40;6.10;;;1.00;;
65572;SDS011;52214;50.940;13.996;2022-07-10T05:20:06;5.27;;;0.93;;
65572;SDS011;52214;50.940;13.996;2022-07-10T05:22:32;8.45;;;1.25;;
65572;SDS011;52214;50.940;13.996;2022-07-10T05:24:57;6.53;;;1.00;;
65572;SDS011;52214;50.940;13.996;2022-07-10T05:27:23;7.80;;;1.10;;
65572;SDS011;52214;50.940;13.996;2022-07-10T05:29:48;5.87;;;1.90;;
65572;SDS011;52214;50.940;13.996;2022-07-10T05:32:14;5.05;;;1.30;;
65572;SDS011;52214;50.940;13.996;2022-07-10T05:34:40;4.77;;;0.90;;
65572;SDS011;52214;50.940;13.996;2022-07-10T05:37:05;4.78;;;1.10;;
65572;SDS011;52214;50.940;13.996;2022-07-10T05:39:32;9.35;;;1.10;;
65572;SDS011;52214;50.940;13.996;2022-07-10T05:41:58;6.45;;;1.10;;
65572;SDS011;52214;50.940;13.996;2022-07-10T05:44:24;7.87;;;1.00;;
65572;SDS011;52214;50.940;13.996;2022-07-10T05:46:50;7.03;;;1.20;;
65572;SDS011;52214;50.940;13.996;2022-07-10T05:49:15;5.83;;;1.13;;
65572;SDS011;52214;50.940;13.996;2022-07-10T05:51:41;6.53;;;1.17;;
65572;SDS011;52214;50.940;13.996;2022-07-10T05:54:07;5.97;;;1.00;;
65572;SDS011;52214;50.940;13.996;2022-07-10T05:56:33;4.75;;;1.10;;
65572;SDS011;52214;50.940;13.996;2022-07-10T05:58:59;4.65;;;1.20;;
65572;SDS011;52214;50.940;13.996;2022-07-10T06:01:24;5.10;;;1.50;;
65572;SDS011;52214;50.940;13.996;2022-07-10T06:03:51;6.50;;;1.25;;
65572;SDS011;52214;50.940;13.996;2022-07-10T06:06:17;6.93;;;1.30;;
65572;SDS011;52214;50.940;13.996;2022-07-10T06:08:43;6.88;;;1.30;;
65572;SDS011;52214;50.940;13.996;2022-07-10T06:11:09;6.20;;;1.30;;
65572;SDS011;52214;50.940;13.996;2022-07-10T06:13:35;7.07;;;1.33;;
65572;SDS011;52214;50.940;13.996;2022-07-10T06:16:02;5.60;;;1.40;;
65572;SDS011;52214;50.940;13.996;2022-07-10T06:18:29;6.38;;;1.10;;
65572;SDS011;52214;50.940;13.996;2022-07-10T06:20:54;6.87;;;1.30;;
65572;SDS011;52214;50.940;13.996;2022-07-10T06:23:20;7.47;;;1.67;;
65572;SDS011;52214;50.940;13.996;2022-07-10T06:25:45;4.47;;;1.10;;
65572;SDS011;52214;50.940;13.996;2022-07-10T06:28:11;5.07;;;1.10;;
65572;SDS011;52214;50.940;13.996;2022-07-10T06:30:36;4.40;;;0.90;;
65572;SDS011;52214;50.940;13.996;2022-07-10T06:33:02;4.63;;;0.97;;
65572;SDS011;52214;50.940;13.996;2022-07-10T06:35:27;3.20;;;0.90;;
65572;SDS011;52214;50.940;13.996;2022-07-10T06:37:53;4.80;;;1.00;;
65572;SDS011;52214;50.940;13.996;2022-07-10T06:40:20;4.38;;;0.90;;
65572;SDS011;52214;50.940;13.996;2022-07-10T06:42:45;3.10;;;0.80;;
65572;SDS011;52214;50.940;13.996;2022-07-10T06:45:11;4.32;;;0.75;;
65572;SDS011;52214;50.940;13.996;2022-07-10T06:47:37;3.03;;;0.90;;
65572;SDS011;52214;50.940;13.996;2022-07-10T06:50:21;6.85;;;1.25;;
65572;SDS011;52214;50.940;13.996;2022-07-10T06:52:47;3.78;;;0.85;;
65572;SDS011;52214;50.940;13.996;2022-07-10T06:55:13;3.25;;;0.90;;
65572;SDS011;52214;50.940;13.996;2022-07-10T06:57:39;4.53;;;1.20;;
65572;SDS011;52214;50.940;13.996;2022-07-10T07:00:05;2.80;;;0.63;;
65572;SDS011;52214;50.940;13.996;2022-07-10T07:02:32;2.38;;;0.75;;
65572;SDS011;52214;50.940;13.996;2022-07-10T07:04:57;5.47;;;0.80;;
65572;SDS011;52214;50.940;13.996;2022-07-10T07:07:23;2.73;;;0.80;;
65572;SDS011;52214;50.940;13.996;2022-07-10T07:09:48;3.00;;;0.80;;
65572;SDS011;52214;50.940;13.996;2022-07-10T07:12:15;4.57;;;0.80;;
65572;SDS011;52214;50.940;13.996;2022-07-10T07:14:42;3.45;;;0.90;;
65572;SDS011;52214;50.940;13.996;2022-07-10T07:17:08;3.60;;;0.90;;
65572;SDS011;52214;50.940;13.996;2022-07-10T07:19:37;5.15;;;1.08;;
65572;SDS011;52214;50.940;13.996;2022-07-10T07:22:22;4.70;;;1.00;;
65572;SDS011;52214;50.940;13.996;2022-07-10T07:25:07;4.90;;;0.77;;
65572;SDS011;52214;50.940;13.996;2022-07-10T07:27:34;3.20;;;0.70;;
65572;SDS011;52214;50.940;13.996;2022-07-10T07:30:02;2.47;;;0.93;;
65572;SDS011;52214;50.940;13.996;2022-07-10T07:32:32;2.67;;;0.68;;
65572;SDS011;52214;50.940;13.996;2022-07-10T07:34:58;4.70;;;0.70;;
65572;SDS011;52214;50.940;13.996;2022-07-10T07:37:37;2.00;;;0.60;;
65572;SDS011;52214;50.940;13.996;2022-07-10T07:40:08;3.35;;;0.60;;
65572;SDS011;52214;50.940;13.996;2022-07-10T07:42:35;2.92;;;0.60;;
65572;SDS011;52214;50.940;13.996;2022-07-10T07:45:01;2.73;;;0.60;;
65572;SDS011;52214;50.940;13.996;2022-07-10T07:47:29;2.00;;;0.60;;
65572;SDS011;52214;50.940;13.996;2022-07-10T07:49:55;5.07;;;1.10;;
65572;SDS011;52214;50.940;13.996;2022-07-10T07:52:21;3.40;;;0.67;;
65572;SDS011;52214;50.940;13.996;2022-07-10T07:54:48;3.42;;;0.98;;
65572;SDS011;52214;50.940;13.996;2022-07-10T07:57:14;3.42;;;0.70;;
65572;SDS011;52214;50.940;13.996;2022-07-10T07:59:40;3.50;;;0.77;;
65572;SDS011;52214;50.940;13.996;2022-07-10T08:02:05;3.25;;;0.70;;
65572;SDS011;52214;50.940;13.996;2022-07-10T08:04:31;2.15;;;0.65;;
65572;SDS011;52214;50.940;13.996;2022-07-10T08:06:57;4.10;;;0.80;;
65572;SDS011;52214;50.940;13.996;2022-07-10T08:09:22;3.40;;;0.60;;
65572;SDS011;52214;50.940;13.996;2022-07-10T08:11:48;2.70;;;0.80;;
65572;SDS011;52214;50.940;13.996;2022-07-10T08:14:13;2.42;;;0.70;;
65572;SDS011;52214;50.940;13.996;2022-07-10T08:16:39;3.57;;;0.80;;
65572;SDS011;52214;50.940;13.996;2022-07-10T08:19:05;4.90;;;0.80;;
65572;SDS011;52214;50.940;13.996;2022-07-10T08:21:31;3.88;;;0.90;;
65572;SDS011;52214;50.940;13.996;2022-07-10T08:23:57;5.43;;;0.90;;
65572;SDS011;52214;50.940;13.996;2022-07-10T08:26:23;3.60;;;0.80;;
65572;SDS011;52214;50.940;13.996;2022-07-10T08:28:49;1.88;;;0.57;;
65572;SDS011;52214;50.940;13.996;2022-07-10T08:31:15;4.23;;;0.87;;
65572;SDS011;52214;50.940;13.996;2022-07-10T08:33:40;4.13;;;0.80;;
65572;SDS011;52214;50.940;13.996;2022-07-10T08:36:06;2.30;;;0.60;;
65572;SDS011;52214;50.940;13.996;2022-07-10T08:38:31;5.83;;;1.53;;
65572;SDS011;52214;50.940;13.996;2022-07-10T08:40:57;3.00;;;0.73;;
65572;SDS011;52214;50.940;13.996;2022-07-10T08:43:27;5.20;;;0.80;;
65572;SDS011;52214;50.940;13.996;2022-07-10T08:45:53;3.33;;;0.90;;
65572;SDS011;52214;50.940;13.996;2022-07-10T08:48:22;4.87;;;0.80;;
65572;SDS011;52214;50.940;13.996;2022-07-10T08:50:51;5.85;;;0.90;;
65572;SDS011;52214;50.940;13.996;2022-07-10T08:53:29;4.70;;;0.98;;
65572;SDS011;52214;50.940;13.996;2022-07-10T08:55:56;3.95;;;0.80;;
65572;SDS011;52214;50.940;13.996;2022-07-10T08:58:25;4.45;;;0.80;;
65572;SDS011;52214;50.940;13.996;2022-07-10T09:00:52;5.17;;;1.00;;
65572;SDS011;52214;50.940;13.996;2022-07-10T09:03:18;3.97;;;1.02;;
65572;SDS011;52214;50.940;13.996;2022-07-10T09:05:44;3.63;;;0.90;;
65572;SDS011;52214;50.940;13.996;2022-07-10T09:08:24;3.63;;;0.68;;
65572;SDS011;52214;50.940;13.996;2022-07-10T09:10:52;2.70;;;0.70;;
65572;SDS011;52214;50.940;13.996;2022-07-10T09:13:17;4.07;;;0.70;;
65572;SDS011;52214;50.940;13.996;2022-07-10T09:15:47;3.75;;;0.70;;
65572;SDS011;52214;50.940;13.996;2022-07-10T09:18:17;5.38;;;0.93;;
65572;SDS011;52214;50.940;13.996;2022-07-10T09:20:44;4.35;;;1.00;;
65572;SDS011;52214;50.940;13.996;2022-07-10T09:23:20;3.38;;;0.80;;
65572;SDS011;52214;50.940;13.996;2022-07-10T09:25:48;8.10;;;1.23;;
65572;SDS011;52214;50.940;13.996;2022-07-10T09:28:18;5.93;;;1.02;;
65572;SDS011;52214;50.940;13.996;2022-07-10T09:30:46;3.70;;;0.82;;
65572;SDS011;52214;50.940;13.996;2022-07-10T09:41:20;6.77;;;1.20;;
65572;SDS011;52214;50.940;13.996;2022-07-10T09:43:52;4.38;;;0.95;;
65572;SDS011;52214;50.940;13.996;2022-07-10T09:46:19;5.00;;;1.10;;
65572;SDS011;52214;50.940;13.996;2022-07-10T09:48:47;5.68;;;1.30;;
65572;SDS011;52214;50.940;13.996;2022-07-10T09:51:13;6.00;;;1.20;;
65572;SDS011;52214;50.940;13.996;2022-07-10T09:53:42;3.10;;;0.87;;
65572;SDS011;52214;50.940;13.996;2022-07-10T09:56:11;3.95;;;1.00;;
65572;SDS011;52214;50.940;13.996;2022-07-10T09:58:38;5.38;;;1.60;;
65572;SDS011;52214;50.940;13.996;2022-07-10T10:01:07;3.55;;;1.13;;
65572;SDS011;52214;50.940;13.996;2022-07-10T10:03:42;3.50;;;1.03;;
65572;SDS011;52214;50.940;13.996;2022-07-10T10:06:10;3.03;;;0.88;;
65572;SDS011;52214;50.940;13.996;2022-07-10T10:11:13;7.13;;;1.00;;
65572;SDS011;52214;50.940;13.996;2022-07-10T10:13:40;5.85;;;1.30;;
65572;SDS011;52214;50.940;13.996;2022-07-10T10:16:08;2.47;;;0.87;;
65572;SDS011;52214;50.940;13.996;2022-07-10T10:18:35;4.38;;;1.10;;
65572;SDS011;52214;50.940;13.996;2022-07-10T10:21:02;4.05;;;1.00;;
65572;SDS011;52214;50.940;13.996;2022-07-10T10:23:31;4.70;;;1.00;;
65572;SDS011;52214;50.940;13.996;2022-07-10T10:25:59;4.07;;;1.10;;
65572;SDS011;52214;50.940;13.996;2022-07-10T10:28:25;4.67;;;1.20;;
65572;SDS011;52214;50.940;13.996;2022-07-10T10:30:52;5.85;;;1.30;;
65572;SDS011;52214;50.940;13.996;2022-07-10T10:36:03;3.22;;;1.05;;
65572;SDS011;52214;50.940;13.996;2022-07-10T10:41:29;3.45;;;1.00;;
65572;SDS011;52214;50.940;13.996;2022-07-10T10:49:22;6.60;;;1.08;;
65572;SDS011;52214;50.940;13.996;2022-07-10T10:54:29;5.30;;;1.08;;
65572;SDS011;52214;50.940;13.996;2022-07-10T10:57:34;4.68;;;1.13;;
65572;SDS011;52214;50.940;13.996;2022-07-10T10:59:56;4.22;;;0.98;;
65572;SDS011;52214;50.940;13.996;2022-07-10T11:02:30;4.45;;;1.10;;
65572;SDS011;52214;50.940;13.996;2022-07-10T11:07:54;3.63;;;1.00;;
65572;SDS011;52214;50.940;13.996;2022-07-10T11:10:34;5.32;;;1.08;;
65572;SDS011;52214;50.940;13.996;2022-07-10T11:15:40;6.68;;;1.00;;
65572;SDS011;52214;50.940;13.996;2022-07-10T11:18:20;6.90;;;1.33;;
65572;SDS011;52214;50.940;13.996;2022-07-10T11:20:53;5.00;;;1.10;;
65572;SDS011;52214;50.940;13.996;2022-07-10T11:26:24;3.78;;;1.00;;
65572;SDS011;52214;50.940;13.996;2022-07-10T11:29:01;5.37;;;1.00;;
65572;SDS011;52214;50.940;13.996;2022-07-10T11:31:31;5.10;;;1.10;;
65572;SDS011;52214;50.940;13.996;2022-07-10T11:34:03;5.60;;;1.23;;
65572;SDS011;52214;50.940;13.996;2022-07-10T11:36:29;4.78;;;1.25;;
65572;SDS011;52214;50.940;13.996;2022-07-10T11:39:04;5.32;;;1.25;;
65572;SDS011;52214;50.940;13.996;2022-07-10T11:41:30;7.57;;;1.47;;
65572;SDS011;52214;50.940;13.996;2022-07-10T11:44:03;5.35;;;1.20;;
65572;SDS011;52214;50.940;13.996;2022-07-10T11:46:30;4.95;;;1.10;;
65572;SDS011;52214;50.940;13.996;2022-07-10T11:48:57;6.53;;;1.20;;
65572;SDS011;52214;50.940;13.996;2022-07-10T11:56:27;6.10;;;1.20;;
65572;SDS011;52214;50.940;13.996;2022-07-10T11:58:55;6.45;;;1.58;;
65572;SDS011;52214;50.940;13.996;2022-07-10T12:01:21;7.03;;;1.40;;
65572;SDS011;52214;50.940;13.996;2022-07-10T12:04:21;4.73;;;1.10;;
65572;SDS011;52214;50.940;13.996;2022-07-10T12:06:41;6.72;;;1.60;;
65572;SDS011;52214;50.940;13.996;2022-07-10T12:09:10;5.88;;;1.25;;
65572;SDS011;52214;50.940;13.996;2022-07-10T12:11:41;4.85;;;1.20;;
65572;SDS011;52214;50.940;13.996;2022-07-10T12:14:15;4.05;;;1.10;;
65572;SDS011;52214;50.940;13.996;2022-07-10T12:16:46;5.30;;;1.23;;
65572;SDS011;52214;50.940;13.996;2022-07-10T12:19:14;5.20;;;1.10;;
65572;SDS011;52214;50.940;13.996;2022-07-10T12:21:41;4.22;;;1.15;;
65572;SDS011;52214;50.940;13.996;2022-07-10T12:24:08;4.70;;;1.30;;
65572;SDS011;52214;50.940;13.996;2022-07-10T12:26:38;4.68;;;1.20;;
65572;SDS011;52214;50.940;13.996;2022-07-10T12:29:05;6.35;;;1.27;;
65572;SDS011;52214;50.940;13.996;2022-07-10T12:31:31;6.33;;;1.17;;
65572;SDS011;52214;50.940;13.996;2022-07-10T12:34:01;3.58;;;1.05;;
65572;SDS011;52214;50.940;13.996;2022-07-10T12:39:46;3.90;;;1.10;;
65572;SDS011;52214;50.940;13.996;2022-07-10T12:42:24;5.72;;;1.27;;
65572;SDS011;52214;50.940;13.996;2022-07-10T12:44:50;4.53;;;1.20;;
65572;SDS011;52214;50.940;13.996;2022-07-10T12:47:17;6.28;;;1.38;;
65572;SDS011;52214;50.940;13.996;2022-07-10T12:52:20;7.10;;;1.65;;
65572;SDS011;52214;50.940;13.996;2022-07-10T12:54:45;5.68;;;1.30;;
65572;SDS011;52214;50.940;13.996;2022-07-10T12:57:11;6.37;;;1.50;;
65572;SDS011;52214;50.940;13.996;2022-07-10T12:59:36;6.18;;;1.50;;
65572;SDS011;52214;50.940;13.996;2022-07-10T13:02:18;6.33;;;1.50;;
65572;SDS011;52214;50.940;13.996;2022-07-10T13:04:51;4.60;;;1.30;;
65572;SDS011;52214;50.940;13.996;2022-07-10T13:07:18;5.10;;;1.50;;
65572;SDS011;52214;50.940;13.996;2022-07-10T13:09:44;5.80;;;1.40;;
65572;SDS011;52214;50.940;13.996;2022-07-10T13:12:10;5.80;;;1.20;;
65572;SDS011;52214;50.940;13.996;2022-07-10T13:14:36;4.80;;;1.20;;
65572;SDS011;52214;50.940;13.996;2022-07-10T13:17:01;4.97;;;1.30;;
65572;SDS011;52214;50.940;13.996;2022-07-10T13:19:27;5.03;;;1.20;;
65572;SDS011;52214;50.940;13.996;2022-07-10T13:21:52;5.13;;;1.15;;
65572;SDS011;52214;50.940;13.996;2022-07-10T13:24:18;6.90;;;1.40;;
65572;SDS011;52214;50.940;13.996;2022-07-10T13:26:43;6.87;;;1.27;;
65572;SDS011;52214;50.940;13.996;2022-07-10T13:29:09;5.30;;;1.23;;
65572;SDS011;52214;50.940;13.996;2022-07-10T13:31:34;5.00;;;1.23;;
65572;SDS011;52214;50.940;13.996;2022-07-10T13:34:00;6.30;;;1.37;;
65572;SDS011;52214;50.940;13.996;2022-07-10T13:36:25;6.73;;;1.37;;
65572;SDS011;52214;50.940;13.996;2022-07-10T13:38:51;5.97;;;1.30;;
65572;SDS011;52214;50.940;13.996;2022-07-10T13:41:17;4.93;;;1.27;;
65572;SDS011;52214;50.940;13.996;2022-07-10T13:43:44;12.77;;;1.70;;
65572;SDS011;52214;50.940;13.996;2022-07-10T13:46:09;5.23;;;1.30;;
65572;SDS011;52214;50.940;13.996;2022-07-10T13:48:35;4.85;;;1.20;;
65572;SDS011;52214;50.940;13.996;2022-07-10T13:51:00;5.53;;;1.23;;
65572;SDS011;52214;50.940;13.996;2022-07-10T13:53:26;5.87;;;1.10;;
65572;SDS011;52214;50.940;13.996;2022-07-10T13:55:51;4.97;;;1.20;;
65572;SDS011;52214;50.940;13.996;2022-07-10T13:58:18;6.30;;;1.30;;
65572;SDS011;52214;50.940;13.996;2022-07-10T14:00:45;7.57;;;1.20;;
65572;SDS011;52214;50.940;13.996;2022-07-10T14:03:11;5.40;;;1.40;;
65572;SDS011;52214;50.940;13.996;2022-07-10T14:05:36;4.88;;;1.27;;
65572;SDS011;52214;50.940;13.996;2022-07-10T14:08:02;5.73;;;1.33;;
65572;SDS011;52214;50.940;13.996;2022-07-10T14:10:28;4.95;;;1.48;;
65572;SDS011;52214;50.940;13.996;2022-07-10T14:12:55;5.38;;;1.33;;
65572;SDS011;52214;50.940;13.996;2022-07-10T14:15:22;5.80;;;1.17;;
65572;SDS011;52214;50.940;13.996;2022-07-10T14:17:47;6.60;;;1.83;;
65572;SDS011;52214;50.940;13.996;2022-07-10T14:20:14;5.43;;;1.60;;
65572;SDS011;52214;50.940;13.996;2022-07-10T14:22:39;6.20;;;1.73;;
65572;SDS011;52214;50.940;13.996;2022-07-10T14:25:05;7.37;;;1.73;;
65572;SDS011;52214;50.940;13.996;2022-07-10T14:27:31;4.47;;;1.27;;
65572;SDS011;52214;50.940;13.996;2022-07-10T14:29:57;6.53;;;1.42;;
65572;SDS011;52214;50.940;13.996;2022-07-10T14:32:24;6.70;;;1.50;;
65572;SDS011;52214;50.940;13.996;2022-07-10T14:34:49;6.28;;;1.30;;
65572;SDS011;52214;50.940;13.996;2022-07-10T14:37:15;8.70;;;1.53;;
65572;SDS011;52214;50.940;13.996;2022-07-10T14:39:41;5.10;;;1.30;;
65572;SDS011;52214;50.940;13.996;2022-07-10T14:42:07;6.93;;;1.23;;
65572;SDS011;52214;50.940;13.996;2022-07-10T14:44:34;5.50;;;1.20;;
65572;SDS011;52214;50.940;13.996;2022-07-10T14:47:00;9.83;;;1.80;;
65572;SDS011;52214;50.940;13.996;2022-07-10T14:49:25;4.83;;;1.33;;
65572;SDS011;52214;50.940;13.996;2022-07-10T14:51:51;6.65;;;1.60;;
65572;SDS011;52214;50.940;13.996;2022-07-10T14:54:16;4.73;;;1.20;;
65572;SDS011;52214;50.940;13.996;2022-07-10T14:56:42;5.53;;;1.30;;
65572;SDS011;52214;50.940;13.996;2022-07-10T14:59:09;6.00;;;1.40;;
65572;SDS011;52214;50.940;13.996;2022-07-10T15:01:35;5.13;;;1.38;;
65572;SDS011;52214;50.940;13.996;2022-07-10T15:04:00;5.23;;;1.33;;
65572;SDS011;52214;50.940;13.996;2022-07-10T15:06:26;6.15;;;1.55;;
65572;SDS011;52214;50.940;13.996;2022-07-10T15:08:52;8.83;;;2.37;;
65572;SDS011;52214;50.940;13.996;2022-07-10T15:11:18;6.73;;;1.30;;
65572;SDS011;52214;50.940;13.996;2022-07-10T15:13:47;6.55;;;1.40;;
65572;SDS011;52214;50.940;13.996;2022-07-10T15:16:13;6.35;;;1.58;;